sensor_id;sensor_type;location;lat;lon;timestamp;pressure;altitude;pressure_sealevel;temperature;humidity
44103;BME280;29769;42.178;24.742;2023-07-16T00:01:03;99741.13;;;24.36;100.00
44103;BME280;29769;42.178;24.742;2023-07-16T00:03:48;99750.28;;;24.33;100.00
44103;BME280;29769;42.178;24.742;2023-07-16T00:06:33;99749.41;;;24.33;100.00
44103;BME280;29769;42.178;24.742;2023-07-16T00:09:18;99753.06;;;24.32;100.00
44103;BME280;29769;42.178;24.742;2023-07-16T00:12:03;99746.97;;;24.30;100.00
44103;BME280;29769;42.178;24.742;2023-07-16T00:14:48;99749.75;;;24.28;100.00
44103;BME280;29769;42.178;24.742;2023-07-16T00:17:34;99744.78;;;24.22;100.00
44103;BME280;29769;42.178;24.742;2023-07-16T00:20:19;99736.59;;;24.11;100.00
44103;BME280;29769;42.178;24.742;2023-07-16T00:23:04;99745.00;;;24.07;100.00
44103;BME280;29769;42.178;24.742;2023-07-16T00:25:48;99748.00;;;24.02;100.00
44103;BME280;29769;42.178;24.742;2023-07-16T00:28:33;99752.59;;;24.00;100.00
44103;BME280;29769;42.178;24.742;2023-07-16T00:31:19;99757.00;;;24.01;100.00
44103;BME280;29769;42.178;24.742;2023-07-16T00:34:04;99753.47;;;24.01;100.00
44103;BME280;29769;42.178;24.742;2023-07-16T00:36:49;99739.91;;;23.89;100.00
44103;BME280;29769;42.178;24.742;2023-07-16T00:39:33;99761.94;;;23.94;100.00
44103;BME280;29769;42.178;24.742;2023-07-16T00:42:18;99754.00;;;23.93;100.00
44103;BME280;29769;42.178;24.742;2023-07-16T00:45:09;99759.69;;;23.88;100.00
44103;BME280;29769;42.178;24.742;2023-07-16T00:47:56;99756.56;;;23.82;100.00
44103;BME280;29769;42.178;24.742;2023-07-16T00:50:41;99752.28;;;23.79;100.00
44103;BME280;29769;42.178;24.742;2023-07-16T00:53:26;99761.38;;;23.77;100.00
44103;BME280;29769;42.178;24.742;2023-07-16T00:56:16;99759.78;;;23.74;100.00
44103;BME280;29769;42.178;24.742;2023-07-16T00:59:02;99748.03;;;23.63;100.00
44103;BME280;29769;42.178;24.742;2023-07-16T01:01:47;99752.22;;;23.67;100.00
44103;BME280;29769;42.178;24.742;2023-07-16T01:04:32;99749.75;;;23.64;100.00
44103;BME280;29769;42.178;24.742;2023-07-16T01:07:18;99753.84;;;23.57;100.00
44103;BME280;29769;42.178;24.742;2023-07-16T01:10:08;99752.09;;;23.56;100.00
44103;BME280;29769;42.178;24.742;2023-07-16T01:12:54;99758.66;;;23.52;100.00
44103;BME280;29769;42.178;24.742;2023-07-16T01:15:40;99756.16;;;23.48;100.00
44103;BME280;29769;42.178;24.742;2023-07-16T01:18:25;99760.00;;;23.44;100.00
44103;BME280;29769;42.178;24.742;2023-07-16T01:21:10;99747.06;;;23.37;100.00
44103;BME280;29769;42.178;24.742;2023-07-16T01:30:23;99769.09;;;23.42;100.00
44103;BME280;29769;42.178;24.742;2023-07-16T01:33:12;99753.53;;;23.34;100.00
44103;BME280;29769;42.178;24.742;2023-07-16T01:35:59;99763.19;;;23.37;100.00
44103;BME280;29769;42.178;24.742;2023-07-16T01:38:44;99758.59;;;23.39;100.00
44103;BME280;29769;42.178;24.742;2023-07-16T01:41:30;99764.91;;;23.38;100.00
44103;BME280;29769;42.178;24.742;2023-07-16T01:44:14;99764.13;;;23.36;100.00
44103;BME280;29769;42.178;24.742;2023-07-16T01:47:17;99769.81;;;23.31;100.00
44103;BME280;29769;42.178;24.742;2023-07-16T01:50:07;99768.94;;;23.31;100.00
44103;BME280;29769;42.178;24.742;2023-07-16T01:52:51;99718.16;;;23.01;100.00
44103;BME280;29769;42.178;24.742;2023-07-16T01:55:36;99762.28;;;23.24;100.00
44103;BME280;29769;42.178;24.742;2023-07-16T01:58:21;99764.88;;;23.25;100.00
44103;BME280;29769;42.178;24.742;2023-07-16T02:01:07;99756.66;;;23.14;100.00
44103;BME280;29769;42.178;24.742;2023-07-16T02:03:52;99766.13;;;23.20;100.00
44103;BME280;29769;42.178;24.742;2023-07-16T02:06:37;99764.31;;;23.20;100.00
44103;BME280;29769;42.178;24.742;2023-07-16T02:09:23;99768.72;;;23.21;100.00
44103;BME280;29769;42.178;24.742;2023-07-16T02:12:07;99772.06;;;23.25;100.00
44103;BME280;29769;42.178;24.742;2023-07-16T02:14:52;99763.13;;;23.24;100.00
44103;BME280;29769;42.178;24.742;2023-07-16T02:17:37;99775.69;;;23.24;100.00
44103;BME280;29769;42.178;24.742;2023-07-16T02:20:22;99775.03;;;23.20;100.00
44103;BME280;29769;42.178;24.742;2023-07-16T02:23:08;99772.44;;;23.19;100.00
44103;BME280;29769;42.178;24.742;2023-07-16T02:25:53;99770.84;;;23.16;100.00
44103;BME280;29769;42.178;24.742;2023-07-16T02:28:38;99773.41;;;23.18;100.00
44103;BME280;29769;42.178;24.742;2023-07-16T02:31:23;99775.44;;;23.14;100.00
44103;BME280;29769;42.178;24.742;2023-07-16T02:34:08;99778.31;;;23.11;100.00
44103;BME280;29769;42.178;24.742;2023-07-16T02:36:53;99781.97;;;23.10;100.00
44103;BME280;29769;42.178;24.742;2023-07-16T02:39:43;99780.06;;;23.12;100.00
44103;BME280;29769;42.178;24.742;2023-07-16T02:42:29;99786.38;;;23.11;100.00
44103;BME280;29769;42.178;24.742;2023-07-16T02:45:14;99788.94;;;23.13;100.00
44103;BME280;29769;42.178;24.742;2023-07-16T02:48:00;99783.69;;;23.11;100.00
44103;BME280;29769;42.178;24.742;2023-07-16T02:50:45;99786.47;;;23.10;100.00
44103;BME280;29769;42.178;24.742;2023-07-16T02:53:30;99788.41;;;23.08;100.00
44103;BME280;29769;42.178;24.742;2023-07-16T02:56:15;99785.81;;;23.06;100.00
44103;BME280;29769;42.178;24.742;2023-07-16T02:59:01;99760.09;;;22.89;100.00
44103;BME280;29769;42.178;24.742;2023-07-16T03:01:46;99764.75;;;22.86;100.00
44103;BME280;29769;42.178;24.742;2023-07-16T03:04:31;99784.69;;;22.96;100.00
44103;BME280;29769;42.178;24.742;2023-07-16T03:07:16;99783.50;;;23.00;100.00
44103;BME280;29769;42.178;24.742;2023-07-16T03:10:02;99782.47;;;23.02;100.00
44103;BME280;29769;42.178;24.742;2023-07-16T03:12:47;99771.19;;;22.97;100.00
44103;BME280;29769;42.178;24.742;2023-07-16T03:15:32;99768.50;;;22.97;100.00
44103;BME280;29769;42.178;24.742;2023-07-16T03:18:19;99766.56;;;22.99;100.00
44103;BME280;29769;42.178;24.742;2023-07-16T03:21:05;99745.69;;;22.90;100.00
44103;BME280;29769;42.178;24.742;2023-07-16T03:23:50;99782.75;;;23.12;100.00
44103;BME280;29769;42.178;24.742;2023-07-16T03:26:35;99794.69;;;23.21;100.00
44103;BME280;29769;42.178;24.742;2023-07-16T03:29:19;99796.38;;;23.22;100.00
44103;BME280;29769;42.178;24.742;2023-07-16T03:32:04;99795.34;;;23.24;100.00
44103;BME280;29769;42.178;24.742;2023-07-16T03:34:50;99779.19;;;23.12;100.00
44103;BME280;29769;42.178;24.742;2023-07-16T03:37:34;99788.91;;;23.27;100.00
44103;BME280;29769;42.178;24.742;2023-07-16T03:40:24;99804.53;;;23.34;100.00
44103;BME280;29769;42.178;24.742;2023-07-16T03:43:09;99804.97;;;23.41;100.00
44103;BME280;29769;42.178;24.742;2023-07-16T03:45:55;99795.69;;;23.46;100.00
44103;BME280;29769;42.178;24.742;2023-07-16T03:48:40;99783.84;;;23.49;100.00
44103;BME280;29769;42.178;24.742;2023-07-16T03:51:25;99790.56;;;23.56;100.00
44103;BME280;29769;42.178;24.742;2023-07-16T03:54:12;99801.13;;;23.72;100.00
44103;BME280;29769;42.178;24.742;2023-07-16T03:56:57;99808.00;;;23.76;100.00
44103;BME280;29769;42.178;24.742;2023-07-16T03:59:43;99803.63;;;23.87;100.00
44103;BME280;29769;42.178;24.742;2023-07-16T04:02:28;99804.19;;;23.92;100.00
44103;BME280;29769;42.178;24.742;2023-07-16T04:05:13;99808.94;;;24.02;100.00
44103;BME280;29769;42.178;24.742;2023-07-16T04:07:58;99780.34;;;24.01;100.00
44103;BME280;29769;42.178;24.742;2023-07-16T04:10:43;99805.56;;;24.25;100.00
44103;BME280;29769;42.178;24.742;2023-07-16T04:13:28;99804.38;;;24.29;100.00
44103;BME280;29769;42.178;24.742;2023-07-16T04:16:12;99809.84;;;24.40;100.00
44103;BME280;29769;42.178;24.742;2023-07-16T04:18:57;99814.91;;;24.45;100.00
44103;BME280;29769;42.178;24.742;2023-07-16T04:21:42;99816.28;;;24.50;100.00
44103;BME280;29769;42.178;24.742;2023-07-16T04:24:27;99821.03;;;24.59;100.00
44103;BME280;29769;42.178;24.742;2023-07-16T04:27:12;99817.03;;;24.77;100.00
44103;BME280;29769;42.178;24.742;2023-07-16T04:29:56;99819.84;;;24.89;100.00
44103;BME280;29769;42.178;24.742;2023-07-16T04:32:41;99819.19;;;24.98;100.00
44103;BME280;29769;42.178;24.742;2023-07-16T04:35:26;99806.38;;;25.01;100.00
44103;BME280;29769;42.178;24.742;2023-07-16T04:38:11;99823.66;;;25.10;100.00
44103;BME280;29769;42.178;24.742;2023-07-16T04:40:56;99818.56;;;25.18;100.00
44103;BME280;29769;42.178;24.742;2023-07-16T04:43:41;99822.84;;;25.33;100.00
44103;BME280;29769;42.178;24.742;2023-07-16T04:46:26;99824.09;;;25.40;100.00
44103;BME280;29769;42.178;24.742;2023-07-16T04:49:11;99826.34;;;25.46;100.00
44103;BME280;29769;42.178;24.742;2023-07-16T04:51:56;99819.72;;;25.63;100.00
44103;BME280;29769;42.178;24.742;2023-07-16T04:54:41;99829.13;;;25.81;100.00
44103;BME280;29769;42.178;24.742;2023-07-16T04:57:26;99823.38;;;25.86;100.00
44103;BME280;29769;42.178;24.742;2023-07-16T05:00:11;99834.34;;;25.72;100.00
44103;BME280;29769;42.178;24.742;2023-07-16T05:02:55;99833.22;;;25.50;100.00
44103;BME280;29769;42.178;24.742;2023-07-16T05:05:40;99819.09;;;25.59;100.00
44103;BME280;29769;42.178;24.742;2023-07-16T05:08:25;99841.16;;;25.88;100.00
44103;BME280;29769;42.178;24.742;2023-07-16T05:11:10;99837.31;;;26.15;100.00
44103;BME280;29769;42.178;24.742;2023-07-16T05:13:55;99832.38;;;26.32;100.00
44103;BME280;29769;42.178;24.742;2023-07-16T05:16:40;99844.38;;;26.39;100.00
44103;BME280;29769;42.178;24.742;2023-07-16T05:19:25;99846.38;;;26.48;100.00
44103;BME280;29769;42.178;24.742;2023-07-16T05:22:10;99850.19;;;26.46;98.02
44103;BME280;29769;42.178;24.742;2023-07-16T05:24:54;99854.09;;;26.53;97.51
44103;BME280;29769;42.178;24.742;2023-07-16T05:27:40;99853.75;;;26.58;97.29
44103;BME280;29769;42.178;24.742;2023-07-16T05:30:24;99841.13;;;26.69;95.41
44103;BME280;29769;42.178;24.742;2023-07-16T05:33:12;99839.91;;;26.73;97.60
44103;BME280;29769;42.178;24.742;2023-07-16T05:35:57;99850.22;;;26.79;97.86
44103;BME280;29769;42.178;24.742;2023-07-16T05:38:42;99847.53;;;26.90;99.65
44103;BME280;29769;42.178;24.742;2023-07-16T05:41:27;99855.13;;;27.08;96.68
44103;BME280;29769;42.178;24.742;2023-07-16T05:44:12;99856.25;;;27.16;95.08
44103;BME280;29769;42.178;24.742;2023-07-16T05:46:57;99858.97;;;27.05;91.96
44103;BME280;29769;42.178;24.742;2023-07-16T05:49:42;99862.88;;;27.23;88.25
44103;BME280;29769;42.178;24.742;2023-07-16T05:52:28;99863.00;;;27.22;86.44
44103;BME280;29769;42.178;24.742;2023-07-16T05:55:12;99860.00;;;27.47;85.98
44103;BME280;29769;42.178;24.742;2023-07-16T05:57:57;99871.38;;;27.73;84.39
44103;BME280;29769;42.178;24.742;2023-07-16T06:00:42;99871.38;;;27.84;81.94
44103;BME280;29769;42.178;24.742;2023-07-16T06:03:27;99865.03;;;27.95;78.40
44103;BME280;29769;42.178;24.742;2023-07-16T06:06:11;99867.81;;;28.04;76.53
44103;BME280;29769;42.178;24.742;2023-07-16T06:08:56;99866.56;;;28.08;77.34
44103;BME280;29769;42.178;24.742;2023-07-16T06:11:41;99865.13;;;28.15;76.48
44103;BME280;29769;42.178;24.742;2023-07-16T06:14:27;99846.66;;;28.20;75.29
44103;BME280;29769;42.178;24.742;2023-07-16T06:17:12;99869.34;;;28.50;74.02
44103;BME280;29769;42.178;24.742;2023-07-16T06:19:57;99863.69;;;28.73;72.51
44103;BME280;29769;42.178;24.742;2023-07-16T06:22:42;99861.03;;;28.83;72.47
44103;BME280;29769;42.178;24.742;2023-07-16T06:25:27;99855.19;;;28.88;72.44
44103;BME280;29769;42.178;24.742;2023-07-16T06:28:12;99858.81;;;28.98;69.95
44103;BME280;29769;42.178;24.742;2023-07-16T06:30:56;99854.72;;;29.13;68.33
44103;BME280;29769;42.178;24.742;2023-07-16T06:33:41;99851.91;;;29.24;68.78
44103;BME280;29769;42.178;24.742;2023-07-16T06:36:26;99846.31;;;29.46;67.53
44103;BME280;29769;42.178;24.742;2023-07-16T06:39:11;99845.72;;;29.43;65.58
44103;BME280;29769;42.178;24.742;2023-07-16T06:41:56;99841.59;;;29.58;63.49
44103;BME280;29769;42.178;24.742;2023-07-16T06:44:40;99847.63;;;29.62;63.68
44103;BME280;29769;42.178;24.742;2023-07-16T06:47:25;99835.75;;;29.63;63.87
44103;BME280;29769;42.178;24.742;2023-07-16T06:50:10;99830.66;;;29.79;63.96
44103;BME280;29769;42.178;24.742;2023-07-16T06:52:55;99828.34;;;29.65;63.68
44103;BME280;29769;42.178;24.742;2023-07-16T06:55:40;99837.03;;;29.58;64.64
44103;BME280;29769;42.178;24.742;2023-07-16T06:58:32;99819.06;;;29.57;62.65
44103;BME280;29769;42.178;24.742;2023-07-16T07:01:17;99829.66;;;29.80;59.42
44103;BME280;29769;42.178;24.742;2023-07-16T07:04:02;99825.09;;;29.90;58.42
44103;BME280;29769;42.178;24.742;2023-07-16T07:06:47;99835.94;;;29.99;56.02
44103;BME280;29769;42.178;24.742;2023-07-16T07:09:32;99833.97;;;30.21;55.00
44103;BME280;29769;42.178;24.742;2023-07-16T07:12:17;99836.50;;;30.32;55.30
44103;BME280;29769;42.178;24.742;2023-07-16T07:15:03;99834.22;;;30.46;55.47
44103;BME280;29769;42.178;24.742;2023-07-16T07:17:48;99832.31;;;30.66;52.30
44103;BME280;29769;42.178;24.742;2023-07-16T07:20:34;99822.66;;;30.81;52.63
44103;BME280;29769;42.178;24.742;2023-07-16T07:23:19;99831.25;;;30.77;49.30
44103;BME280;29769;42.178;24.742;2023-07-16T07:26:04;99828.34;;;30.98;51.51
44103;BME280;29769;42.178;24.742;2023-07-16T07:28:49;99830.66;;;30.92;53.11
44103;BME280;29769;42.178;24.742;2023-07-16T07:31:34;99830.44;;;31.13;52.59
44103;BME280;29769;42.178;24.742;2023-07-16T07:34:19;99831.69;;;31.19;52.92
44103;BME280;29769;42.178;24.742;2023-07-16T07:37:04;99826.94;;;31.21;53.08
44103;BME280;29769;42.178;24.742;2023-07-16T07:39:52;99831.88;;;31.35;52.61
44103;BME280;29769;42.178;24.742;2023-07-16T07:42:37;99822.50;;;31.47;53.35
44103;BME280;29769;42.178;24.742;2023-07-16T07:45:23;99824.41;;;31.82;53.48
44103;BME280;29769;42.178;24.742;2023-07-16T07:48:08;99826.06;;;31.93;50.92
44103;BME280;29769;42.178;24.742;2023-07-16T07:50:53;99824.56;;;31.98;51.73
44103;BME280;29769;42.178;24.742;2023-07-16T07:53:38;99790.97;;;32.07;51.64
44103;BME280;29769;42.178;24.742;2023-07-16T07:56:23;99825.91;;;32.55;50.94
44103;BME280;29769;42.178;24.742;2023-07-16T07:59:08;99818.81;;;32.62;49.32
44103;BME280;29769;42.178;24.742;2023-07-16T08:01:53;99827.41;;;32.76;49.13
44103;BME280;29769;42.178;24.742;2023-07-16T08:04:37;99819.97;;;32.60;46.75
44103;BME280;29769;42.178;24.742;2023-07-16T08:07:23;99829.53;;;32.38;47.83
44103;BME280;29769;42.178;24.742;2023-07-16T08:10:08;99824.22;;;32.37;46.55
44103;BME280;29769;42.178;24.742;2023-07-16T08:12:53;99818.00;;;32.96;45.96
44103;BME280;29769;42.178;24.742;2023-07-16T08:15:38;99818.03;;;32.70;46.38
44103;BME280;29769;42.178;24.742;2023-07-16T08:18:23;99824.63;;;32.93;45.95
44103;BME280;29769;42.178;24.742;2023-07-16T08:21:07;99821.06;;;32.93;45.94
44103;BME280;29769;42.178;24.742;2023-07-16T08:23:52;99804.56;;;33.44;44.65
44103;BME280;29769;42.178;24.742;2023-07-16T08:26:37;99812.78;;;33.53;43.93
44103;BME280;29769;42.178;24.742;2023-07-16T08:29:22;99811.56;;;33.05;45.00
44103;BME280;29769;42.178;24.742;2023-07-16T08:32:07;99816.41;;;33.69;44.14
44103;BME280;29769;42.178;24.742;2023-07-16T08:34:52;99810.28;;;33.83;42.67
44103;BME280;29769;42.178;24.742;2023-07-16T08:37:37;99816.88;;;33.65;43.36
44103;BME280;29769;42.178;24.742;2023-07-16T08:40:22;99791.53;;;33.88;42.87
44103;BME280;29769;42.178;24.742;2023-07-16T08:43:08;99804.31;;;34.12;41.54
44103;BME280;29769;42.178;24.742;2023-07-16T08:45:53;99804.34;;;34.28;42.42
44103;BME280;29769;42.178;24.742;2023-07-16T08:48:39;99800.94;;;34.18;40.85
44103;BME280;29769;42.178;24.742;2023-07-16T08:51:24;99800.88;;;34.59;41.55
44103;BME280;29769;42.178;24.742;2023-07-16T08:54:09;99797.28;;;34.58;40.82
44103;BME280;29769;42.178;24.742;2023-07-16T08:56:57;99788.25;;;34.74;41.21
44103;BME280;29769;42.178;24.742;2023-07-16T08:59:42;99800.69;;;34.76;40.81
44103;BME280;29769;42.178;24.742;2023-07-16T09:02:27;99778.66;;;34.78;40.42
44103;BME280;29769;42.178;24.742;2023-07-16T09:05:14;99788.47;;;35.03;40.75
44103;BME280;29769;42.178;24.742;2023-07-16T09:07:59;99796.44;;;35.21;40.61
44103;BME280;29769;42.178;24.742;2023-07-16T09:10:43;99789.78;;;35.23;40.11
44103;BME280;29769;42.178;24.742;2023-07-16T09:13:29;99790.50;;;35.09;41.34
44103;BME280;29769;42.178;24.742;2023-07-16T09:16:14;99792.34;;;35.25;41.61
44103;BME280;29769;42.178;24.742;2023-07-16T09:19:09;99792.03;;;35.20;41.20
44103;BME280;29769;42.178;24.742;2023-07-16T09:21:55;99789.13;;;35.44;42.06
44103;BME280;29769;42.178;24.742;2023-07-16T09:24:40;99796.03;;;35.63;41.34
44103;BME280;29769;42.178;24.742;2023-07-16T09:27:28;99799.66;;;35.86;40.80
44103;BME280;29769;42.178;24.742;2023-07-16T09:30:16;99790.47;;;36.39;39.35
44103;BME280;29769;42.178;24.742;2023-07-16T09:33:13;99786.38;;;37.02;37.76
44103;BME280;29769;42.178;24.742;2023-07-16T09:35:58;99784.63;;;38.02;36.50
44103;BME280;29769;42.178;24.742;2023-07-16T09:38:44;99780.69;;;38.60;34.91
44103;BME280;29769;42.178;24.742;2023-07-16T09:41:29;99779.97;;;38.24;34.82
44103;BME280;29769;42.178;24.742;2023-07-16T09:44:15;99775.19;;;38.60;34.25
44103;BME280;29769;42.178;24.742;2023-07-16T09:47:00;99766.41;;;39.86;32.78
44103;BME280;29769;42.178;24.742;2023-07-16T09:49:45;99755.94;;;41.00;31.12
44103;BME280;29769;42.178;24.742;2023-07-16T09:52:32;99759.78;;;40.93;30.98
44103;BME280;29769;42.178;24.742;2023-07-16T09:55:18;99748.78;;;42.06;29.16
44103;BME280;29769;42.178;24.742;2023-07-16T09:58:08;99761.94;;;40.71;30.59
44103;BME280;29769;42.178;24.742;2023-07-16T10:00:54;99756.69;;;40.63;30.92
44103;BME280;29769;42.178;24.742;2023-07-16T10:03:50;99756.91;;;40.41;31.16
44103;BME280;29769;42.178;24.742;2023-07-16T10:06:35;99746.22;;;40.84;30.43
44103;BME280;29769;42.178;24.742;2023-07-16T10:09:40;99745.84;;;42.01;29.43
44103;BME280;29769;42.178;24.742;2023-07-16T10:12:26;99742.22;;;41.32;29.88
44103;BME280;29769;42.178;24.742;2023-07-16T10:15:11;99740.63;;;41.55;29.73
44103;BME280;29769;42.178;24.742;2023-07-16T10:17:56;99717.13;;;42.27;29.16
44103;BME280;29769;42.178;24.742;2023-07-16T10:20:41;99730.63;;;43.44;27.89
44103;BME280;29769;42.178;24.742;2023-07-16T10:23:41;99727.22;;;43.91;26.89
44103;BME280;29769;42.178;24.742;2023-07-16T10:26:27;99720.47;;;44.21;26.52
44103;BME280;29769;42.178;24.742;2023-07-16T10:29:13;99725.19;;;43.98;26.97
44103;BME280;29769;42.178;24.742;2023-07-16T10:32:00;99714.16;;;44.96;25.85
44103;BME280;29769;42.178;24.742;2023-07-16T10:34:45;99709.16;;;46.11;24.21
44103;BME280;29769;42.178;24.742;2023-07-16T10:37:30;99701.69;;;44.35;25.98
44103;BME280;29769;42.178;24.742;2023-07-16T10:40:15;99699.28;;;43.62;27.05
44103;BME280;29769;42.178;24.742;2023-07-16T10:43:01;99706.03;;;43.66;27.55
44103;BME280;29769;42.178;24.742;2023-07-16T10:45:46;99697.81;;;44.48;26.40
44103;BME280;29769;42.178;24.742;2023-07-16T10:48:31;99699.94;;;45.32;25.42
44103;BME280;29769;42.178;24.742;2023-07-16T10:51:17;99698.97;;;46.17;24.58
44103;BME280;29769;42.178;24.742;2023-07-16T10:54:01;99689.88;;;47.25;23.07
44103;BME280;29769;42.178;24.742;2023-07-16T10:56:50;99688.50;;;48.55;21.79
44103;BME280;29769;42.178;24.742;2023-07-16T10:59:38;99678.59;;;48.84;21.77
44103;BME280;29769;42.178;24.742;2023-07-16T11:02:25;99688.34;;;47.93;22.53
44103;BME280;29769;42.178;24.742;2023-07-16T11:05:11;99675.50;;;47.11;23.03
44103;BME280;29769;42.178;24.742;2023-07-16T11:07:56;99665.94;;;44.62;25.46
44103;BME280;29769;42.178;24.742;2023-07-16T11:10:41;99670.72;;;43.50;27.10
44103;BME280;29769;42.178;24.742;2023-07-16T11:13:27;99673.25;;;43.93;26.32
44103;BME280;29769;42.178;24.742;2023-07-16T11:16:12;99659.06;;;42.02;29.12
44103;BME280;29769;42.178;24.742;2023-07-16T11:18:57;99671.66;;;43.14;27.99
44103;BME280;29769;42.178;24.742;2023-07-16T11:21:42;99668.81;;;45.02;25.73
44103;BME280;29769;42.178;24.742;2023-07-16T11:24:26;99658.50;;;45.31;25.09
44103;BME280;29769;42.178;24.742;2023-07-16T11:27:22;99668.69;;;45.70;24.66
44103;BME280;29769;42.178;24.742;2023-07-16T11:30:08;99633.59;;;45.81;24.42
44103;BME280;29769;42.178;24.742;2023-07-16T11:32:53;99656.66;;;46.53;23.90
44103;BME280;29769;42.178;24.742;2023-07-16T11:35:38;99657.03;;;46.40;23.87
44103;BME280;29769;42.178;24.742;2023-07-16T11:38:23;99653.72;;;42.87;28.09
44103;BME280;29769;42.178;24.742;2023-07-16T11:41:09;99649.63;;;42.53;28.47
44103;BME280;29769;42.178;24.742;2023-07-16T11:43:53;99651.41;;;42.04;29.26
44103;BME280;29769;42.178;24.742;2023-07-16T11:46:38;99639.38;;;43.38;27.48
44103;BME280;29769;42.178;24.742;2023-07-16T11:49:23;99619.88;;;43.98;26.65
44103;BME280;29769;42.178;24.742;2023-07-16T11:52:08;99643.38;;;43.54;27.12
44103;BME280;29769;42.178;24.742;2023-07-16T11:54:54;99644.00;;;44.72;25.89
44103;BME280;29769;42.178;24.742;2023-07-16T11:57:39;99645.84;;;45.06;25.83
44103;BME280;29769;42.178;24.742;2023-07-16T12:00:24;99633.81;;;46.29;24.60
44103;BME280;29769;42.178;24.742;2023-07-16T12:03:09;99632.97;;;47.48;23.20
44103;BME280;29769;42.178;24.742;2023-07-16T12:05:53;99637.84;;;45.38;25.17
44103;BME280;29769;42.178;24.742;2023-07-16T12:08:38;99633.81;;;44.14;26.90
44103;BME280;29769;42.178;24.742;2023-07-16T12:11:23;99638.44;;;45.12;25.65
44103;BME280;29769;42.178;24.742;2023-07-16T12:14:08;99637.16;;;46.70;24.17
44103;BME280;29769;42.178;24.742;2023-07-16T12:16:53;99624.41;;;46.52;23.44
44103;BME280;29769;42.178;24.742;2023-07-16T12:19:38;99624.44;;;44.79;25.33
44103;BME280;29769;42.178;24.742;2023-07-16T12:22:23;99628.88;;;44.05;26.56
44103;BME280;29769;42.178;24.742;2023-07-16T12:25:08;99612.69;;;45.95;24.56
44103;BME280;29769;42.178;24.742;2023-07-16T12:27:53;99618.50;;;45.93;23.82
44103;BME280;29769;42.178;24.742;2023-07-16T12:30:38;99630.41;;;43.66;26.39
44103;BME280;29769;42.178;24.742;2023-07-16T12:33:23;99625.91;;;43.12;27.32
44103;BME280;29769;42.178;24.742;2023-07-16T12:36:07;99617.91;;;43.98;26.29
44103;BME280;29769;42.178;24.742;2023-07-16T12:38:52;99629.34;;;43.78;26.56
44103;BME280;29769;42.178;24.742;2023-07-16T12:41:37;99617.06;;;45.12;24.83
44103;BME280;29769;42.178;24.742;2023-07-16T12:44:22;99617.53;;;44.29;25.59
44103;BME280;29769;42.178;24.742;2023-07-16T12:47:07;99617.91;;;44.33;25.57
44103;BME280;29769;42.178;24.742;2023-07-16T12:49:53;99617.34;;;45.28;24.59
44103;BME280;29769;42.178;24.742;2023-07-16T12:52:38;99614.34;;;44.72;24.61
44103;BME280;29769;42.178;24.742;2023-07-16T12:55:22;99601.06;;;45.03;24.70
44103;BME280;29769;42.178;24.742;2023-07-16T12:58:08;99601.81;;;45.93;23.40
44103;BME280;29769;42.178;24.742;2023-07-16T13:00:53;99600.06;;;46.64;22.69
44103;BME280;29769;42.178;24.742;2023-07-16T13:03:38;99596.22;;;46.27;24.25
44103;BME280;29769;42.178;24.742;2023-07-16T13:06:23;99593.94;;;46.89;23.67
44103;BME280;29769;42.178;24.742;2023-07-16T13:09:08;99594.97;;;47.05;23.03
44103;BME280;29769;42.178;24.742;2023-07-16T13:11:53;99560.03;;;45.22;23.74
44103;BME280;29769;42.178;24.742;2023-07-16T13:14:37;99587.56;;;44.66;25.30
44103;BME280;29769;42.178;24.742;2023-07-16T13:17:22;99578.19;;;44.84;24.44
44103;BME280;29769;42.178;24.742;2023-07-16T13:20:08;99576.72;;;44.02;25.50
44103;BME280;29769;42.178;24.742;2023-07-16T13:22:53;99580.44;;;42.89;27.45
44103;BME280;29769;42.178;24.742;2023-07-16T13:25:38;99590.81;;;43.24;27.52
44103;BME280;29769;42.178;24.742;2023-07-16T13:28:24;99575.69;;;43.38;26.82
44103;BME280;29769;42.178;24.742;2023-07-16T13:31:08;99570.56;;;44.00;26.17
44103;BME280;29769;42.178;24.742;2023-07-16T13:33:53;99575.75;;;44.59;26.04
44103;BME280;29769;42.178;24.742;2023-07-16T13:36:38;99568.31;;;45.33;25.14
44103;BME280;29769;42.178;24.742;2023-07-16T13:39:23;99560.84;;;45.50;24.15
44103;BME280;29769;42.178;24.742;2023-07-16T13:42:08;99565.13;;;45.41;24.32
44103;BME280;29769;42.178;24.742;2023-07-16T13:44:55;99558.78;;;45.63;24.12
44103;BME280;29769;42.178;24.742;2023-07-16T13:47:41;99536.16;;;45.54;23.96
44103;BME280;29769;42.178;24.742;2023-07-16T13:50:26;99556.09;;;44.89;24.73
44103;BME280;29769;42.178;24.742;2023-07-16T13:53:11;99559.25;;;44.01;25.57
44103;BME280;29769;42.178;24.742;2023-07-16T13:55:56;99552.25;;;43.87;25.47
44103;BME280;29769;42.178;24.742;2023-07-16T13:58:41;99547.91;;;43.91;25.71
44103;BME280;29769;42.178;24.742;2023-07-16T14:01:26;99551.38;;;44.10;25.46
44103;BME280;29769;42.178;24.742;2023-07-16T14:04:11;99552.81;;;43.01;26.78
44103;BME280;29769;42.178;24.742;2023-07-16T14:06:56;99536.16;;;43.31;26.32
44103;BME280;29769;42.178;24.742;2023-07-16T14:09:40;99539.72;;;43.61;26.04
44103;BME280;29769;42.178;24.742;2023-07-16T14:12:25;99541.50;;;43.67;25.60
44103;BME280;29769;42.178;24.742;2023-07-16T14:15:10;99542.94;;;44.05;25.55
44103;BME280;29769;42.178;24.742;2023-07-16T14:17:55;99526.53;;;44.26;25.18
44103;BME280;29769;42.178;24.742;2023-07-16T14:20:40;99536.81;;;44.54;24.20
44103;BME280;29769;42.178;24.742;2023-07-16T14:23:25;99545.56;;;44.11;25.02
44103;BME280;29769;42.178;24.742;2023-07-16T14:26:10;99539.50;;;41.70;27.39